createdAt,value
2022-10-20T00:02:19.143Z,5.40
2022-10-20T00:06:36.015Z,5.22
2022-10-20T00:10:57.982Z,4.50
2022-10-20T00:15:15.325Z,5.50
2022-10-20T00:19:29.194Z,5.07
2022-10-20T00:23:43.224Z,5.80
2022-10-20T00:27:58.440Z,5.25
2022-10-20T00:32:12.116Z,5.55
2022-10-20T00:36:26.135Z,5.63
2022-10-20T00:40:41.110Z,5.60
2022-10-20T00:44:59.617Z,5.40
2022-10-20T00:49:19.217Z,5.25
2022-10-20T00:53:33.201Z,5.00
2022-10-20T00:57:51.008Z,4.72
2022-10-20T01:02:07.894Z,5.10
2022-10-20T01:06:26.496Z,5.13
2022-10-20T01:10:48.381Z,4.63
2022-10-20T01:15:08.771Z,4.30
2022-10-20T01:19:58.381Z,4.87
2022-10-20T01:24:50.924Z,4.63
2022-10-20T01:29:12.639Z,4.55
2022-10-20T01:33:37.297Z,4.65
2022-10-20T01:37:55.561Z,4.57
2022-10-20T01:42:14.502Z,4.60
2022-10-20T01:46:30.091Z,4.32
2022-10-20T01:50:44.594Z,4.33
2022-10-20T01:54:58.324Z,4.65
2022-10-20T01:59:34.370Z,4.90
2022-10-20T02:03:55.253Z,3.83
2022-10-20T02:08:14.342Z,4.78
2022-10-20T02:12:30.568Z,4.68
2022-10-20T02:16:49.315Z,4.50
2022-10-20T02:21:07.224Z,4.63
2022-10-20T02:25:22.673Z,4.38
2022-10-20T02:29:43.587Z,3.95
2022-10-20T02:33:58.748Z,4.50
2022-10-20T02:38:14.045Z,4.47
2022-10-20T02:42:27.794Z,5.05
2022-10-20T02:46:41.485Z,4.27
2022-10-20T02:50:55.124Z,4.40
2022-10-20T02:55:10.692Z,4.95
2022-10-20T02:59:24.347Z,4.82
2022-10-20T03:03:38.051Z,4.50
2022-10-20T03:07:51.766Z,4.38
2022-10-20T03:12:07.313Z,4.15
2022-10-20T03:16:21.347Z,5.50
2022-10-20T03:20:35.555Z,4.35
2022-10-20T03:24:49.298Z,5.22
2022-10-20T03:29:04.441Z,5.30
2022-10-20T03:33:18.090Z,4.68
2022-10-20T03:37:31.803Z,5.82
2022-10-20T03:41:45.441Z,5.55
2022-10-20T03:46:08.295Z,5.53
2022-10-20T03:50:22.021Z,5.55
2022-10-20T03:54:36.447Z,5.93
2022-10-20T03:58:50.271Z,5.87
2022-10-20T04:03:05.512Z,5.53
2022-10-20T04:07:19.233Z,6.53
2022-10-20T04:11:33.305Z,5.13
2022-10-20T04:15:46.904Z,6.15
2022-10-20T04:20:02.103Z,6.22
2022-10-20T04:24:15.991Z,6.20
2022-10-20T04:28:30.799Z,6.67
2022-10-20T04:32:44.448Z,6.40
2022-10-20T04:37:00.051Z,6.90
2022-10-20T04:41:13.757Z,7.17
2022-10-20T04:45:27.479Z,7.03
2022-10-20T04:49:42.228Z,6.45
2022-10-20T04:53:57.348Z,7.50
2022-10-20T04:58:11.192Z,7.60
2022-10-20T05:02:25.177Z,7.38
2022-10-20T05:06:39.376Z,7.28
2022-10-20T05:10:54.410Z,7.30
2022-10-20T05:15:09.165Z,7.55
2022-10-20T05:19:23.022Z,7.75
2022-10-20T05:23:36.954Z,7.90
2022-10-20T05:27:51.933Z,8.00
2022-10-20T05:32:05.874Z,8.82
2022-10-20T05:36:21.842Z,8.43
2022-10-20T05:40:35.523Z,8.32
2022-10-20T05:44:50.995Z,8.32
2022-10-20T05:49:05.153Z,8.52
2022-10-20T05:53:19.769Z,8.23
2022-10-20T05:57:33.569Z,8.02
2022-10-20T06:01:49.111Z,9.23
2022-10-20T06:06:03.620Z,7.30
2022-10-20T06:10:17.470Z,8.40
2022-10-20T06:14:31.352Z,9.13
2022-10-20T06:18:46.407Z,9.20
2022-10-20T06:23:00.086Z,9.50
2022-10-20T06:27:13.855Z,8.80
2022-10-20T06:31:29.214Z,8.88
2022-10-20T06:35:44.601Z,8.50
2022-10-20T06:39:58.463Z,7.93
2022-10-20T06:44:12.836Z,7.10
2022-10-20T06:48:27.383Z,9.67
2022-10-20T06:52:42.463Z,6.82
2022-10-20T06:56:56.188Z,9.10
2022-10-20T07:01:14.649Z,8.73
2022-10-20T07:05:28.430Z,7.53
2022-10-20T07:09:43.488Z,6.53
2022-10-20T07:13:58.744Z,5.90
2022-10-20T07:18:12.377Z,5.60
2022-10-20T07:22:26.006Z,5.60
2022-10-20T07:26:41.961Z,5.68
2022-10-20T07:30:55.717Z,5.73
2022-10-20T07:35:09.707Z,6.15
2022-10-20T07:39:23.654Z,5.57
2022-10-20T07:43:39.145Z,5.80
2022-10-20T07:47:52.864Z,5.65
2022-10-20T07:52:07.158Z,6.60
2022-10-20T07:56:21.261Z,5.88
2022-10-20T08:00:36.344Z,5.93
2022-10-20T08:04:50.280Z,5.80
2022-10-20T08:09:05.069Z,6.25
2022-10-20T08:13:18.791Z,6.23
2022-10-20T08:17:34.966Z,5.30
2022-10-20T08:21:48.984Z,5.50
2022-10-20T08:26:02.800Z,5.33
2022-10-20T08:30:23.812Z,4.93
2022-10-20T08:34:39.756Z,5.00
2022-10-20T08:38:54.548Z,5.43
2022-10-20T08:43:11.760Z,4.63
2022-10-20T08:47:30.665Z,4.05
2022-10-20T08:51:47.679Z,4.80
2022-10-20T08:56:01.385Z,4.30
2022-10-20T09:00:17.336Z,4.40
2022-10-20T09:04:37.800Z,4.30
2022-10-20T09:08:53.572Z,3.90
2022-10-20T09:13:14.496Z,2.90
2022-10-20T09:17:28.216Z,3.25
2022-10-20T09:21:43.070Z,2.75
2022-10-20T09:25:58.163Z,3.57
2022-10-20T09:30:18.544Z,3.05
2022-10-20T09:34:34.707Z,3.28
2022-10-20T09:38:50.534Z,3.60
2022-10-20T09:43:12.398Z,2.90
2022-10-20T09:47:28.539Z,3.13
2022-10-20T09:51:49.135Z,3.00
2022-10-20T09:56:03.475Z,2.97
2022-10-20T10:00:36.774Z,3.08
2022-10-20T10:04:53.049Z,3.65
2022-10-20T10:09:28.027Z,2.67
2022-10-20T10:13:44.655Z,3.08
2022-10-20T10:18:01.425Z,2.83
2022-10-20T10:22:15.667Z,3.23
2022-10-20T10:26:46.988Z,3.17
2022-10-20T10:31:24.129Z,2.40
2022-10-20T10:35:42.143Z,3.10
2022-10-20T10:39:56.442Z,3.00
2022-10-20T10:44:18.957Z,2.70
2022-10-20T10:48:55.497Z,3.53
2022-10-20T10:53:28.005Z,2.97
2022-10-20T10:57:52.959Z,3.08
2022-10-20T11:02:33.831Z,2.88
2022-10-20T11:06:57.071Z,3.80
2022-10-20T11:11:26.317Z,3.17
2022-10-20T11:16:00.335Z,4.50
2022-10-20T11:20:25.627Z,3.60
2022-10-20T11:24:50.932Z,4.28
2022-10-20T11:29:11.394Z,3.88
2022-10-20T11:33:28.258Z,4.57
2022-10-20T11:37:49.469Z,4.80
2022-10-20T11:42:16.557Z,4.47
2022-10-20T11:46:38.188Z,4.70
2022-10-20T11:51:16.697Z,5.40
2022-10-20T11:55:45.365Z,4.97
2022-10-20T12:00:15.062Z,5.32
2022-10-20T12:04:41.417Z,4.60
2022-10-20T12:09:40.212Z,3.88
2022-10-20T12:14:02.159Z,4.22
2022-10-20T12:18:26.092Z,5.10
2022-10-20T12:22:43.478Z,5.00
2022-10-20T12:27:20.965Z,3.88
2022-10-20T12:32:24.181Z,4.20
2022-10-20T12:36:39.225Z,4.23
2022-10-20T12:41:00.057Z,4.25
2022-10-20T12:45:30.840Z,4.80
2022-10-20T12:49:54.588Z,4.30
2022-10-20T12:54:20.039Z,3.47
2022-10-20T12:58:36.581Z,4.63
2022-10-20T13:02:53.587Z,4.65
2022-10-20T13:07:10.578Z,4.33
2022-10-20T13:11:41.967Z,3.70
2022-10-20T13:15:57.998Z,3.92
2022-10-20T13:20:24.176Z,3.23
2022-10-20T13:24:42.697Z,3.85
2022-10-20T13:29:02.110Z,3.80
2022-10-20T13:33:34.438Z,3.87
2022-10-20T13:38:00.616Z,3.90
2022-10-20T13:42:27.553Z,3.63
2022-10-20T13:46:50.340Z,3.65
2022-10-20T13:51:10.697Z,2.70
2022-10-20T13:55:27.280Z,2.83
2022-10-20T13:59:56.479Z,2.90
2022-10-20T14:04:25.490Z,3.20
2022-10-20T14:08:45.557Z,2.75
2022-10-20T14:12:59.434Z,2.70
2022-10-20T14:17:20.744Z,2.40
2022-10-20T14:21:41.673Z,2.60
2022-10-20T14:25:58.001Z,2.22
2022-10-20T14:30:17.110Z,2.60
2022-10-20T14:34:34.378Z,2.60
2022-10-20T14:38:53.282Z,2.50
2022-10-20T14:43:14.999Z,2.22
2022-10-20T14:47:33.928Z,3.23
2022-10-20T14:51:56.197Z,3.42
2022-10-20T14:56:25.590Z,3.67
2022-10-20T15:00:41.096Z,3.60
2022-10-20T15:04:54.910Z,3.30
2022-10-20T15:09:19.176Z,3.75
2022-10-20T15:13:34.510Z,3.65
2022-10-20T15:17:51.332Z,3.90
2022-10-20T15:26:28.907Z,2.72
2022-10-20T15:30:42.773Z,3.20
2022-10-20T15:34:57.808Z,3.10
2022-10-20T15:39:12.224Z,3.45
2022-10-20T15:43:26.764Z,3.93
2022-10-20T15:47:41.074Z,3.95
2022-10-20T15:51:56.332Z,3.88
2022-10-20T15:56:10.173Z,3.47
2022-10-20T16:00:26.762Z,3.73
2022-10-20T16:04:40.530Z,2.95
2022-10-20T16:08:55.934Z,3.53
2022-10-20T16:13:10.756Z,3.10
2022-10-20T16:17:24.461Z,2.50
2022-10-20T16:21:38.171Z,3.15
2022-10-20T16:25:53.461Z,3.50
2022-10-20T16:30:08.725Z,2.97
2022-10-20T16:34:22.495Z,4.13
2022-10-20T16:38:39.923Z,4.28
2022-10-20T16:42:55.612Z,4.03
2022-10-20T16:47:35.974Z,3.13
2022-10-20T16:51:49.862Z,3.95
2022-10-20T16:56:15.209Z,4.33
2022-10-20T17:00:38.592Z,4.50
2022-10-20T17:04:52.961Z,4.43
2022-10-20T17:09:06.798Z,5.00
2022-10-20T17:13:20.558Z,5.35
2022-10-20T17:17:36.076Z,6.25
2022-10-20T17:21:52.466Z,5.07
2022-10-20T17:26:11.058Z,3.80
2022-10-20T17:30:24.951Z,4.70
2022-10-20T17:34:40.099Z,5.00
2022-10-20T17:38:56.537Z,5.60
2022-10-20T17:54:44.922Z,6.33
2022-10-20T17:59:00.335Z,5.57
2022-10-20T18:03:14.626Z,5.88
2022-10-20T18:07:28.611Z,5.90
2022-10-20T18:11:45.657Z,5.30
2022-10-20T18:15:59.376Z,5.80
2022-10-20T18:20:13.747Z,4.53
2022-10-20T18:24:30.660Z,6.17
2022-10-20T18:28:50.588Z,6.32
2022-10-20T18:33:05.708Z,6.90
2022-10-20T18:37:19.869Z,7.40
2022-10-20T18:41:38.138Z,7.15
2022-10-20T18:45:54.391Z,7.30
2022-10-20T18:50:09.767Z,7.20
2022-10-20T18:54:24.318Z,7.03
2022-10-20T18:58:43.021Z,7.40
2022-10-20T19:03:07.891Z,7.60
2022-10-20T19:07:22.134Z,7.27
2022-10-20T19:11:40.620Z,6.88
2022-10-20T19:15:56.558Z,7.38
2022-10-20T19:20:16.225Z,6.73
2022-10-20T19:24:30.410Z,7.60
2022-10-20T19:28:59.002Z,6.25
2022-10-20T19:33:12.978Z,7.65
2022-10-20T19:37:28.656Z,7.30
2022-10-20T19:41:42.542Z,7.47
2022-10-20T19:45:56.673Z,6.15
2022-10-20T19:50:10.646Z,8.80
2022-10-20T19:54:26.077Z,9.23
2022-10-20T19:58:44.136Z,9.70
2022-10-20T20:03:02.784Z,9.20
2022-10-20T20:11:34.752Z,8.32
2022-10-20T20:15:48.808Z,8.05
2022-10-20T20:20:03.070Z,9.23
2022-10-20T20:24:17.095Z,9.65
2022-10-20T20:28:32.710Z,9.90
2022-10-20T20:32:47.805Z,9.77
2022-10-20T20:37:04.548Z,8.52
2022-10-20T20:41:20.828Z,9.80
2022-10-20T20:45:38.114Z,8.03
2022-10-20T20:49:56.547Z,6.60
2022-10-20T20:54:11.479Z,7.15
2022-10-20T20:58:26.435Z,9.00
2022-10-20T21:02:45.084Z,7.67
2022-10-20T21:07:02.965Z,5.68
2022-10-20T21:11:18.900Z,8.02
2022-10-20T21:15:32.922Z,5.53
2022-10-20T21:19:48.007Z,6.47
2022-10-20T21:24:03.103Z,6.40
2022-10-20T21:28:16.817Z,5.10
2022-10-20T21:32:30.500Z,6.85
2022-10-20T21:36:45.680Z,5.85
2022-10-20T21:41:03.755Z,5.15
2022-10-20T21:45:19.150Z,5.30
2022-10-20T21:49:33.832Z,4.90
2022-10-20T21:53:49.256Z,6.55
2022-10-20T21:58:02.907Z,5.40
2022-10-20T22:02:16.546Z,5.88
2022-10-20T22:06:30.239Z,6.63
2022-10-20T22:10:45.288Z,5.10
2022-10-20T22:14:59.016Z,5.18
2022-10-20T22:19:14.625Z,5.35
2022-10-20T22:23:28.493Z,6.25
2022-10-20T22:27:43.571Z,5.03
2022-10-20T22:31:57.259Z,5.60
2022-10-20T22:36:10.961Z,5.95
2022-10-20T22:40:24.624Z,4.97
2022-10-20T22:44:39.694Z,4.57
2022-10-20T22:48:53.455Z,6.22
2022-10-20T22:53:07.233Z,5.40
2022-10-20T22:57:21.001Z,5.03
2022-10-20T23:01:36.354Z,4.75
2022-10-20T23:05:50.061Z,4.35
2022-10-20T23:10:04.525Z,5.73
2022-10-20T23:14:18.884Z,5.47
2022-10-20T23:18:34.611Z,5.13
2022-10-20T23:22:49.210Z,5.90
2022-10-20T23:27:03.060Z,5.72
2022-10-20T23:31:19.004Z,3.50
2022-10-20T23:35:35.799Z,5.30
2022-10-20T23:39:49.619Z,5.90
2022-10-20T23:44:03.536Z,5.40
2022-10-20T23:48:17.495Z,5.65
2022-10-20T23:52:32.592Z,4.70
2022-10-20T23:56:47.101Z,5.18
